Time;durP1;ratioP1;P1;durP2;ratioP2;P2;SDS_P1;SDS_P2;PMS_P1;PMS_P2;Temp;Humidity;BMP_temperature;BMP_pressure;BME280_temperature;BME280_humidity;BME280_pressure;Samples;Min_cycle;Max_cycle;Signal;HPM_P1;HPM_P2
2021/03/07 08:58:38;;;;;;;15.63;5.00;;;3.00;99.90;;;;;;5773071;23;20056;-87
2021/03/07 09:06:58;;;;;;;13.93;4.80;;;3.40;99.90;;;;;;4973425;23;20352;-94
2021/03/07 09:09:25;;;;;;;9.53;4.70;;;3.60;99.90;;;;;;4867300;29;20064;-96
2021/03/07 09:11:55;;;;;;;10.30;5.40;;;3.80;99.90;;;;;;4898402;29;20052;-96
2021/03/07 09:14:33;;;;;;;7.07;4.30;;;3.90;99.90;;;;;;4872116;29;20065;-94
2021/03/07 09:17:02;;;;;;;9.38;4.53;;;3.90;99.90;;;;;;4864812;29;20072;-96
2021/03/07 09:19:33;;;;;;;9.18;5.07;;;3.90;99.90;;;;;;4883215;29;20042;-96
2021/03/07 09:22:19;;;;;;;9.10;4.90;;;4.20;99.90;;;;;;4876839;29;20045;-95
2021/03/07 09:24:55;;;;;;;10.33;5.53;;;4.20;99.90;;;;;;4880688;29;20045;-95
2021/03/07 09:27:24;;;;;;;8.87;4.23;;;4.20;99.90;;;;;;4894145;29;20383;-96
2021/03/07 09:30:12;;;;;;;13.07;5.15;;;4.20;99.90;;;;;;4884821;29;20068;-96
2021/03/07 09:32:41;;;;;;;10.40;6.10;;;4.30;99.90;;;;;;4894674;29;20054;-96
2021/03/07 09:36:11;;;;;;;9.37;5.50;;;4.50;99.90;;;;;;4876211;29;20057;-96
2021/03/07 09:38:45;;;;;;;8.95;4.85;;;4.60;99.90;;;;;;4866553;29;20060;-95
2021/03/07 09:41:13;;;;;;;13.83;5.40;;;4.70;99.90;;;;;;4875066;29;20072;-96
2021/03/07 09:43:43;;;;;;;9.82;4.68;;;4.90;99.90;;;;;;4876708;29;20053;-95
2021/03/07 09:46:16;;;;;;;12.85;5.15;;;5.10;99.90;;;;;;4864107;29;20105;-96
2021/03/07 09:48:46;;;;;;;13.07;4.88;;;5.10;99.90;;;;;;4872605;29;20049;-96
2021/03/07 09:51:19;;;;;;;9.75;5.75;;;4.80;99.90;;;;;;4864425;29;20067;-96
2021/03/07 09:53:46;;;;;;;11.27;5.35;;;4.70;99.90;;;;;;4862942;29;20061;-96
2021/03/07 09:56:30;;;;;;;11.50;5.55;;;4.80;99.90;;;;;;4884955;29;20352;-96
2021/03/07 09:59:13;;;;;;;9.00;4.95;;;4.60;99.90;;;;;;4887578;29;20061;-95
2021/03/07 10:01:48;;;;;;;13.60;5.78;;;4.70;99.90;;;;;;4862679;29;20049;-96
2021/03/07 10:04:31;;;;;;;8.02;4.68;;;4.70;99.90;;;;;;4871158;29;20057;-95
2021/03/07 10:07:00;;;;;;;8.27;4.25;;;4.80;99.90;;;;;;4872182;29;20065;-96
2021/03/07 10:09:28;;;;;;;9.95;4.95;;;4.90;99.90;;;;;;4890408;29;20055;-95
2021/03/07 10:12:09;;;;;;;8.80;4.97;;;5.00;99.90;;;;;;4886053;29;20084;-95
2021/03/07 10:14:37;;;;;;;8.65;4.93;;;5.00;99.90;;;;;;5004762;23;20030;-88
2021/03/07 10:17:09;;;;;;;9.80;4.87;;;4.70;99.90;;;;;;4877877;29;20069;-93
2021/03/07 10:19:38;;;;;;;8.50;5.15;;;4.70;99.90;;;;;;4858535;29;20057;-96
2021/03/07 10:22:06;;;;;;;20.47;6.10;;;4.70;99.90;;;;;;4850252;29;20049;-95
2021/03/07 10:24:35;;;;;;;7.73;4.50;;;4.70;99.90;;;;;;4842670;29;20053;-96
2021/03/07 10:27:04;;;;;;;11.93;5.20;;;4.70;99.90;;;;;;4865640;29;20076;-96
2021/03/07 10:29:34;;;;;;;9.52;4.85;;;4.70;99.90;;;;;;4851182;29;20057;-96
2021/03/07 10:32:11;;;;;;;15.57;6.47;;;4.60;99.90;;;;;;4867691;29;20068;-95
2021/03/07 10:34:46;;;;;;;11.18;5.25;;;4.70;99.90;;;;;;4878828;29;20044;-86
2021/03/07 10:57:21;;;;;;;8.18;4.53;;;5.20;99.90;;;;;;5494090;23;20053;-84
2021/03/07 11:00:25;;;;;;;9.15;5.47;;;5.30;99.90;;;;;;4880559;29;20057;-84
2021/03/07 11:05:53;;;;;;;9.45;5.30;;;5.90;99.90;;;;;;5087499;23;20068;-85
2021/03/07 11:11:02;;;;;;;7.93;4.38;;;7.00;94.80;;;;;;4848556;29;20034;-85
2021/03/07 11:13:38;;;;;;;7.43;4.30;;;7.20;93.80;;;;;;4846205;29;20044;-85
2021/03/07 11:16:15;;;;;;;7.72;4.18;;;7.80;90.70;;;;;;4832534;29;20030;-85
2021/03/07 11:18:47;;;;;;;5.68;3.80;;;8.60;83.70;;;;;;4840360;29;20050;-84
2021/03/07 11:21:27;;;;;;;5.57;3.78;;;9.90;75.40;;;;;;5017732;23;20053;-85
2021/03/07 11:24:08;;;;;;;7.10;4.03;;;10.30;68.00;;;;;;4879422;29;20044;-85
2021/03/07 11:26:46;;;;;;;10.07;4.25;;;10.20;63.00;;;;;;4881602;29;20777;-85
2021/03/07 11:29:21;;;;;;;7.72;4.10;;;9.10;67.10;;;;;;4867697;29;20061;-84
2021/03/07 11:31:54;;;;;;;5.90;3.65;;;8.00;68.80;;;;;;4849005;29;20057;-85
2021/03/07 11:34:24;;;;;;;8.95;4.13;;;7.80;73.10;;;;;;4850829;29;20042;-85
2021/03/07 11:36:57;;;;;;;7.45;4.03;;;7.90;69.00;;;;;;4866191;29;20061;-85
2021/03/07 11:39:46;;;;;;;5.32;3.65;;;8.10;70.70;;;;;;4885489;29;20045;-84
2021/03/07 11:51:00;;;;;;;5.90;3.28;;;7.70;67.70;;;;;;4918499;23;20056;-84
2021/03/07 12:28:16;;;;;;;7.60;3.35;;;17.20;38.30;;;;;;4902550;29;20048;-91
2021/03/07 12:30:46;;;;;;;4.95;3.25;;;18.00;37.70;;;;;;4875137;29;20056;-87
2021/03/07 12:33:14;;;;;;;4.70;2.83;;;18.10;38.20;;;;;;4866316;29;20064;-89
2021/03/07 12:35:41;;;;;;;8.15;3.25;;;19.50;35.50;;;;;;4855133;29;20057;-87
2021/03/07 12:38:09;;;;;;;7.18;3.10;;;20.50;34.10;;;;;;4854121;29;20061;-90
2021/03/07 12:40:36;;;;;;;8.60;3.47;;;20.20;33.20;;;;;;4858060;29;20073;-91
2021/03/07 12:43:05;;;;;;;5.97;3.22;;;19.10;34.20;;;;;;4869341;29;20052;-90
2021/03/07 12:45:34;;;;;;;4.03;3.00;;;19.00;34.40;;;;;;4850614;29;20057;-90
2021/03/07 12:56:35;;;;;;;4.43;3.25;;;14.30;41.80;;;;;;5860736;23;20607;-86
2021/03/07 12:59:05;;;;;;;5.53;3.22;;;14.60;40.50;;;;;;4864102;29;20053;-89
2021/03/07 13:01:33;;;;;;;6.97;3.35;;;15.60;40.10;;;;;;4853451;29;20068;-90
2021/03/07 13:04:03;;;;;;;5.65;3.00;;;17.10;36.90;;;;;;4855798;29;20049;-91
2021/03/07 13:06:31;;;;;;;7.28;3.25;;;17.50;36.70;;;;;;4880441;29;20060;-88
2021/03/07 13:08:59;;;;;;;4.90;2.90;;;18.90;35.00;;;;;;4882858;29;20056;-88
2021/03/07 13:11:26;;;;;;;6.18;3.08;;;20.40;33.40;;;;;;4890347;29;20040;-89
2021/03/07 13:13:54;;;;;;;6.60;3.40;;;21.50;31.00;;;;;;4889751;29;20052;-90
2021/03/07 13:16:21;;;;;;;5.95;3.55;;;20.10;31.40;;;;;;4876148;29;20056;-89
2021/03/07 13:27:27;;;;;;;5.80;3.50;;;14.80;38.90;;;;;;5043754;23;20052;-88
2021/03/07 13:30:04;;;;;;;4.80;3.08;;;14.90;39.10;;;;;;4885717;29;20066;-86
2021/03/07 13:35:28;;;;;;;6.78;2.70;;;15.80;38.60;;;;;;5254372;23;20048;-90
2021/03/07 13:37:56;;;;;;;6.35;3.00;;;17.50;36.10;;;;;;4909707;29;20070;-90
2021/03/07 13:40:28;;;;;;;5.15;2.60;;;19.30;35.20;;;;;;4889568;29;20067;-90
2021/03/07 13:42:58;;;;;;;4.75;2.40;;;20.00;33.50;;;;;;4886196;29;20048;-93
2021/03/07 13:45:26;;;;;;;3.97;2.60;;;19.90;33.70;;;;;;4874397;29;20492;-92
2021/03/07 13:47:53;;;;;;;5.57;2.40;;;19.40;34.00;;;;;;4875640;29;20061;-92
2021/03/07 13:50:24;;;;;;;6.47;2.65;;;19.60;33.90;;;;;;4874087;29;20387;-91
2021/03/07 13:52:52;;;;;;;5.18;2.47;;;20.50;33.40;;;;;;4882725;29;20051;-91
2021/03/07 13:55:20;;;;;;;6.78;2.83;;;21.40;31.30;;;;;;4891952;29;20133;-91
2021/03/07 13:57:50;;;;;;;7.18;2.67;;;20.40;31.80;;;;;;4892455;29;20462;-91
2021/03/07 15:27:29;;;;;;;5.57;2.42;;;8.10;55.40;;;;;;4940099;23;20336;-84
2021/03/07 15:30:10;;;;;;;7.00;2.63;;;7.90;56.10;;;;;;4907026;29;20045;-87
2021/03/07 15:38:35;;;;;;;5.68;2.17;;;7.60;57.20;;;;;;5586157;23;20028;-85
2021/03/07 15:41:04;;;;;;;4.50;2.38;;;7.40;57.80;;;;;;4922029;29;20056;-86
2021/03/07 19:44:41;;;;;;;8.20;3.75;;;3.80;92.80;;;;;;4925437;29;20051;-83
2021/03/07 19:47:48;;;;;;;10.67;3.80;;;4.00;92.40;;;;;;4873113;29;20068;-84
2021/03/07 19:50:20;;;;;;;6.72;3.58;;;4.10;92.10;;;;;;4885037;29;20052;-82
2021/03/07 19:52:58;;;;;;;7.73;4.40;;;4.00;92.10;;;;;;4882179;29;20060;-82
2021/03/07 19:55:30;;;;;;;8.57;3.97;;;4.00;92.40;;;;;;4896395;29;20049;-82
2021/03/07 19:58:03;;;;;;;7.80;3.90;;;3.80;93.50;;;;;;4886952;29;20049;-82
2021/03/07 20:00:44;;;;;;;8.15;3.65;;;3.80;93.10;;;;;;4891122;29;20055;-83
2021/03/07 20:03:33;;;;;;;7.40;3.60;;;4.00;92.50;;;;;;4870791;29;20052;-82
2021/03/07 20:06:17;;;;;;;8.77;3.58;;;3.90;92.20;;;;;;4882970;29;20059;-82
2021/03/07 20:08:48;;;;;;;8.90;4.80;;;4.10;91.90;;;;;;4881201;29;20060;-82
2021/03/07 20:11:29;;;;;;;7.97;4.25;;;4.20;91.40;;;;;;4900781;29;20053;-82
2021/03/07 20:14:46;;;;;;;10.80;4.47;;;4.20;91.50;;;;;;4889363;29;20066;-82
2021/03/07 20:17:50;;;;;;;9.20;4.00;;;4.10;91.30;;;;;;4885716;29;20067;-83
2021/03/07 20:23:58;;;;;;;8.63;3.83;;;3.80;92.70;;;;;;4821975;29;20053;-81
2021/03/07 20:27:09;;;;;;;8.53;4.57;;;3.70;93.60;;;;;;4827886;29;20060;-83
2021/03/07 20:29:49;;;;;;;9.93;4.55;;;3.40;94.70;;;;;;4823865;29;20059;-81
2021/03/07 20:32:33;;;;;;;9.07;3.70;;;3.30;95.90;;;;;;4807168;29;20038;-81
2021/03/07 20:38:27;;;;;;;9.90;4.50;;;3.20;97.30;;;;;;4798135;29;20038;-83
2021/03/07 20:41:09;;;;;;;10.05;4.70;;;3.20;98.10;;;;;;4806537;29;20045;-80
2021/03/07 20:43:48;;;;;;;9.90;4.27;;;3.20;98.80;;;;;;4823938;29;20052;-82
2021/03/07 20:46:22;;;;;;;9.67;4.73;;;3.10;99.10;;;;;;4807569;29;20058;-80
2021/03/07 20:48:52;;;;;;;9.77;4.37;;;3.20;99.60;;;;;;4873139;29;20052;-81
2021/03/07 20:54:52;;;;;;;9.50;4.57;;;3.30;99.50;;;;;;4875924;29;20030;-81
2021/03/07 20:57:25;;;;;;;9.13;3.80;;;3.30;99.60;;;;;;4884365;29;20048;-82
2021/03/07 21:00:07;;;;;;;12.50;4.67;;;3.30;99.20;;;;;;4873319;29;20057;-82
2021/03/07 21:03:05;;;;;;;8.40;3.93;;;3.40;99.20;;;;;;4876977;29;20045;-83
2021/03/07 21:05:42;;;;;;;10.37;3.73;;;3.30;99.30;;;;;;4874462;29;20049;-84
2021/03/07 21:08:24;;;;;;;6.43;3.27;;;3.30;99.50;;;;;;4870548;29;20063;-82
2021/03/07 21:11:00;;;;;;;8.90;3.97;;;3.30;98.70;;;;;;4885815;29;20041;-83
2021/03/07 21:17:45;;;;;;;;;;;;;;;;;;;;;
2021/03/07 21:21:09;;;;;;;7.73;3.53;;;3.30;98.90;;;;;;4789236;29;20164;-81
2021/03/07 21:24:11;;;;;;;8.87;3.50;;;3.40;98.60;;;;;;4791568;29;20056;-83
2021/03/07 21:29:45;;;;;;;9.67;2.90;;;3.50;98.50;;;;;;4790779;30;20055;-83
2021/03/07 21:32:32;;;;;;;8.17;3.43;;;3.40;98.40;;;;;;4800138;29;20051;-83
2021/03/07 21:35:25;;;;;;;5.83;2.80;;;3.40;98.60;;;;;;4806814;30;20053;-82
2021/03/07 21:38:14;;;;;;;;;;;;;;;;;;;;;
2021/03/07 21:40:49;;;;;;;6.10;3.20;;;3.50;98.40;;;;;;4794393;29;20062;-83
2021/03/07 21:43:24;;;;;;;9.03;3.37;;;3.40;98.30;;;;;;4811835;29;20060;-82
2021/03/07 21:46:37;;;;;;;6.17;3.23;;;3.30;99.10;;;;;;4836737;29;20054;-82
2021/03/07 21:49:16;;;;;;;6.70;3.20;;;3.20;99.50;;;;;;4821913;29;20063;-84
2021/03/07 21:51:48;;;;;;;;;;;3.30;99.90;;;;;;4823935;29;20069;-84
2021/03/07 21:54:19;;;;;;;7.23;3.10;;;3.30;99.90;;;;;;4847507;29;19924;-83
2021/03/07 21:56:53;;;;;;;6.63;3.43;;;3.20;99.90;;;;;;4889152;29;20067;-83
2021/03/07 21:59:23;;;;;;;6.63;3.13;;;3.30;99.90;;;;;;4878104;29;20029;-83
2021/03/07 22:02:01;;;;;;;7.47;3.10;;;3.30;99.90;;;;;;4859783;29;20042;-84
2021/03/07 22:04:32;;;;;;;6.47;3.00;;;3.20;99.90;;;;;;4867572;29;20126;-83
2021/03/07 22:07:01;;;;;;;6.70;3.13;;;3.10;99.90;;;;;;4873142;29;20060;-83
2021/03/07 22:09:33;;;;;;;;;;;3.10;99.90;;;;;;4888895;29;20036;-83
2021/03/07 22:12:04;;;;;;;6.67;2.73;;;3.30;99.90;;;;;;4866210;29;19908;-83
2021/03/07 22:14:51;;;;;;;5.93;2.90;;;3.40;99.90;;;;;;4908401;29;20056;-83
2021/03/07 22:17:23;;;;;;;9.47;2.90;;;3.40;99.90;;;;;;4907931;29;20040;-83
2021/03/07 22:19:55;;;;;;;6.43;3.40;;;3.30;99.90;;;;;;4908340;29;20075;-82
2021/03/07 22:22:23;;;;;;;5.67;2.43;;;3.30;99.90;;;;;;4875530;29;20064;-82
2021/03/07 22:24:56;;;;;;;6.65;2.42;;;3.30;99.90;;;;;;4869233;29;20052;-82
2021/03/07 22:27:28;;;;;;;5.30;2.67;;;3.30;99.90;;;;;;4869031;29;20063;-83
2021/03/07 22:29:58;;;;;;;6.63;3.07;;;3.20;99.90;;;;;;4859163;29;20060;-83
2021/03/07 22:32:35;;;;;;;5.73;3.27;;;3.20;99.90;;;;;;4871198;29;20056;-83
2021/03/07 22:37:53;;;;;;;9.80;3.33;;;3.10;99.90;;;;;;5149646;24;20036;-83
2021/03/07 22:40:24;;;;;;;6.03;3.10;;;3.20;99.90;;;;;;4907805;29;20021;-83
2021/03/07 22:42:57;;;;;;;7.03;3.50;;;3.10;99.90;;;;;;4909630;29;20041;-84
2021/03/07 22:45:33;;;;;;;8.97;4.33;;;3.20;99.90;;;;;;4882661;29;20032;-84
2021/03/07 22:48:02;;;;;;;7.53;3.00;;;3.20;99.90;;;;;;4884288;29;20041;-83
2021/03/07 22:50:31;;;;;;;9.27;3.55;;;3.20;99.90;;;;;;4881257;29;20033;-83
2021/03/07 22:53:00;;;;;;;8.33;3.50;;;3.10;99.90;;;;;;4876080;29;20063;-82
2021/03/07 22:55:34;;;;;;;7.57;3.73;;;3.10;99.90;;;;;;4872440;29;20043;-83
2021/03/07 22:58:06;;;;;;;8.43;3.67;;;3.10;99.90;;;;;;4878078;29;20057;-82
2021/03/07 23:00:36;;;;;;;7.37;2.90;;;3.10;99.90;;;;;;4886949;29;20041;-83
2021/03/07 23:03:05;;;;;;;7.30;3.87;;;3.10;99.90;;;;;;4882564;29;20057;-82
2021/03/07 23:05:38;;;;;;;;;;;3.10;99.90;;;;;;4887378;29;20078;-84
2021/03/07 23:08:15;;;;;;;5.90;2.43;;;3.00;99.90;;;;;;4892201;29;20180;-84
2021/03/07 23:10:52;;;;;;;7.50;3.70;;;3.00;99.90;;;;;;4883640;29;20060;-82
2021/03/07 23:13:20;;;;;;;6.53;3.40;;;2.90;99.90;;;;;;4887114;29;20066;-80
2021/03/07 23:15:52;;;;;;;5.88;3.00;;;2.90;99.90;;;;;;4883031;29;20060;-81
2021/03/07 23:18:25;;;;;;;7.17;3.23;;;2.90;99.90;;;;;;4886213;29;20048;-81
2021/03/07 23:20:59;;;;;;;5.83;3.07;;;2.90;99.90;;;;;;4901337;29;20052;-81
2021/03/07 23:23:48;;;;;;;8.53;3.50;;;2.90;99.90;;;;;;4902928;29;20047;-83
2021/03/07 23:26:28;;;;;;;7.50;3.50;;;2.90;99.90;;;;;;4902891;29;20052;-83
2021/03/07 23:29:00;;;;;;;6.57;3.07;;;2.90;99.90;;;;;;4875770;29;20047;-81
2021/03/07 23:31:30;;;;;;;7.17;3.70;;;2.90;99.90;;;;;;4881680;29;20061;-80
2021/03/07 23:34:02;;;;;;;8.67;3.50;;;2.90;99.90;;;;;;4884094;29;20067;-82
2021/03/07 23:36:35;;;;;;;7.90;3.80;;;2.90;99.90;;;;;;4888464;29;20053;-80
2021/03/07 23:39:06;;;;;;;7.47;3.70;;;3.00;99.90;;;;;;4884298;29;20033;-83
2021/03/07 23:41:35;;;;;;;6.73;3.40;;;3.00;99.90;;;;;;4892395;29;20049;-84
2021/03/07 23:44:06;;;;;;;8.93;3.83;;;3.10;99.90;;;;;;4874005;29;20056;-82
2021/03/07 23:46:39;;;;;;;10.60;4.17;;;3.00;99.90;;;;;;4866334;29;20032;-84
2021/03/07 23:49:08;;;;;;;6.40;3.77;;;2.90;99.90;;;;;;4889227;29;20069;-83
2021/03/07 23:51:38;;;;;;;11.07;5.33;;;3.00;99.90;;;;;;4884235;29;20029;-85
2021/03/07 23:54:09;;;;;;;10.53;4.10;;;3.00;99.90;;;;;;4888081;29;20113;-84
2021/03/07 23:56:40;;;;;;;13.67;4.50;;;2.90;99.90;;;;;;4886570;29;20063;-84
2021/03/07 23:59:10;;;;;;;11.73;4.37;;;2.90;99.90;;;;;;4871913;29;20102;-83
